Time;durP1;ratioP1;P1;durP2;ratioP2;P2;SDS_P1;SDS_P2;PMS_P1;PMS_P2;Temp;Humidity;BMP_temperature;BMP_pressure;BME280_temperature;BME280_humidity;BME280_pressure;Samples;Min_cycle;Max_cycle;Signal;HPM_P1;HPM_P2
2021/04/24 00:02:23;;;;;;;12.10;7.38;;;7.00;64.40;5.80;102757.00;;;;5007804;28;20037;-68
2021/04/24 00:04:49;;;;;;;18.13;7.85;;;7.00;65.90;5.70;102768.00;;;;5006955;28;20046;-68
2021/04/24 00:07:18;;;;;;;22.65;8.00;;;7.90;65.30;5.70;102772.00;;;;5022804;28;20061;-68
2021/04/24 00:09:45;;;;;;;16.30;7.97;;;6.90;65.50;5.70;102766.00;;;;5006813;28;20835;-68
2021/04/24 00:12:11;;;;;;;16.48;7.63;;;6.80;66.10;5.60;102771.00;;;;5003497;28;20041;-68
2021/04/24 00:14:37;;;;;;;15.80;7.97;;;6.80;65.80;5.60;102756.00;;;;5005266;28;20033;-68
2021/04/24 00:17:03;;;;;;;15.55;8.23;;;6.80;65.70;5.60;102748.00;;;;5012735;28;21093;-68
2021/04/24 00:19:29;;;;;;;17.10;8.82;;;6.80;65.60;5.50;102753.00;;;;5008220;28;20069;-67
2021/04/24 00:21:55;;;;;;;13.93;7.18;;;8.50;66.20;5.50;102754.00;;;;5008430;28;20046;-67
2021/04/24 00:24:21;;;;;;;14.50;7.55;;;6.70;65.80;5.50;102758.00;;;;5010069;28;20099;-67
2021/04/24 00:26:47;;;;;;;15.90;7.85;;;6.60;66.10;5.50;102764.00;;;;5007166;28;20052;-68
2021/04/24 00:29:13;;;;;;;17.33;8.55;;;6.70;65.90;5.40;102750.00;;;;5005328;28;20053;-68
2021/04/24 00:31:39;;;;;;;19.90;7.45;;;6.60;66.30;5.40;102763.00;;;;5007526;28;20061;-67
2021/04/24 00:34:05;;;;;;;16.25;7.30;;;6.60;65.90;5.40;102763.00;;;;5006498;28;20535;-67
2021/04/24 00:36:32;;;;;;;16.92;7.68;;;6.60;66.90;5.40;102763.00;;;;5009271;28;20034;-67
2021/04/24 00:38:58;;;;;;;17.30;7.75;;;6.60;68.00;5.30;102754.00;;;;5009005;28;20136;-68
2021/04/24 00:41:24;;;;;;;15.73;7.90;;;6.50;66.00;5.30;102760.00;;;;5006649;28;20050;-68
2021/04/24 00:43:50;;;;;;;14.77;8.23;;;6.60;67.10;5.30;102760.00;;;;5005978;28;20129;-68
2021/04/24 00:46:17;;;;;;;17.70;8.48;;;6.50;67.40;5.30;102761.00;;;;5011390;28;20463;-68
2021/04/24 00:48:43;;;;;;;17.10;8.25;;;6.50;67.10;5.30;102757.00;;;;5012260;28;20459;-67
2021/04/24 00:51:10;;;;;;;20.23;8.23;;;6.50;67.60;5.30;102751.00;;;;5006168;28;20045;-67
2021/04/24 00:53:37;;;;;;;17.33;7.97;;;6.50;67.10;5.20;102749.00;;;;5002877;28;20496;-67
2021/04/24 00:56:04;;;;;;;21.55;8.88;;;6.40;67.10;5.20;102748.00;;;;4988293;28;20657;-68
2021/04/24 00:58:33;;;;;;;20.67;8.50;;;6.40;67.20;5.20;102747.00;;;;5006675;28;20306;-67
2021/04/24 01:00:59;;;;;;;18.67;8.75;;;6.40;68.10;5.10;102744.00;;;;5007859;28;20045;-67
2021/04/24 01:03:25;;;;;;;18.42;8.50;;;6.40;67.10;5.20;102739.00;;;;5007479;28;20141;-67
2021/04/24 01:05:51;;;;;;;18.88;8.27;;;6.30;67.60;5.10;102734.00;;;;5003120;28;20045;-67
2021/04/24 01:08:17;;;;;;;15.75;7.82;;;6.30;68.00;5.10;102738.00;;;;5006141;28;20061;-69
2021/04/24 01:10:44;;;;;;;17.73;8.93;;;6.30;66.80;5.10;102748.00;;;;5022781;28;20520;-68
2021/04/24 01:13:11;;;;;;;;;;;6.30;67.70;5.00;102741.00;;;;5002667;28;20417;-68
2021/04/24 01:15:39;;;;;;;15.57;8.27;;;6.30;67.30;5.00;102752.00;;;;5014913;28;19921;-68
2021/04/24 01:18:06;;;;;;;;;;;6.30;66.60;4.90;102735.00;;;;5003362;28;20238;-68
2021/04/24 01:20:34;;;;;;;20.27;8.65;;;6.20;68.40;5.00;102738.00;;;;5014183;28;19925;-68
2021/04/24 01:23:01;;;;;;;20.33;9.00;;;6.20;68.10;5.00;102732.00;;;;4990314;28;20068;-68
2021/04/24 01:25:28;;;;;;;16.10;8.57;;;5.70;68.30;5.00;102724.00;;;;5004636;28;20052;-69
2021/04/24 01:28:00;;;;;;;19.92;8.50;;;6.20;67.30;4.90;102725.00;;;;5000951;28;20034;-68
2021/04/24 01:30:31;;;;;;;20.25;8.75;;;6.50;68.60;4.90;102721.00;;;;5003771;28;20045;-68
2021/04/24 01:32:58;;;;;;;18.88;9.55;;;6.20;68.00;4.90;102723.00;;;;5004478;28;20765;-68
2021/04/24 01:35:29;;;;;;;14.70;7.63;;;6.20;68.40;4.90;102722.00;;;;5003806;28;20204;-68
2021/04/24 01:37:56;;;;;;;15.18;8.25;;;6.10;68.10;4.90;102719.00;;;;4994667;28;20054;-68
2021/04/24 01:40:24;;;;;;;14.68;7.97;;;6.10;70.20;4.90;102717.00;;;;5003937;28;20120;-69
2021/04/24 01:42:50;;;;;;;17.80;8.38;;;6.10;69.90;4.90;102717.00;;;;5008390;28;20046;-68
2021/04/24 01:45:18;;;;;;;16.63;8.98;;;6.10;68.70;4.90;102714.00;;;;4999612;28;20450;-68
2021/04/24 01:47:46;;;;;;;18.55;9.23;;;6.10;69.10;4.80;102716.00;;;;4994785;28;20353;-68
2021/04/24 01:50:18;;;;;;;20.13;8.80;;;6.10;69.70;4.80;102706.00;;;;5003093;28;21045;-68
2021/04/24 01:52:47;;;;;;;21.58;9.05;;;6.10;68.70;4.80;102717.00;;;;5008563;28;20045;-69
2021/04/24 01:55:21;;;;;;;17.13;8.70;;;6.00;68.90;4.80;102721.00;;;;4998781;28;20057;-68
2021/04/24 01:57:50;;;;;;;19.65;8.77;;;6.00;68.30;4.80;102717.00;;;;5005892;28;20041;-68
2021/04/24 02:00:31;;;;;;;19.42;8.27;;;6.00;70.20;4.70;102709.00;;;;4992785;28;20045;-68
2021/04/24 02:02:59;;;;;;;17.08;8.38;;;6.00;69.80;4.70;102714.00;;;;5005890;28;20609;-68
2021/04/24 02:05:26;;;;;;;21.13;8.93;;;6.00;69.60;4.70;102728.00;;;;5000402;28;20140;-68
2021/04/24 02:08:23;;;;;;;19.40;8.95;;;6.00;68.90;4.70;102717.00;;;;5006534;28;20053;-68
2021/04/24 02:10:53;;;;;;;20.77;8.40;;;5.90;70.80;4.70;102717.00;;;;5005963;28;20460;-68
2021/04/24 02:13:31;;;;;;;14.98;8.35;;;6.00;70.00;4.70;102716.00;;;;4997874;28;20146;-68
2021/04/24 02:15:57;;;;;;;18.23;9.35;;;5.90;70.60;4.70;102722.00;;;;5010046;28;20056;-68
2021/04/24 02:18:26;;;;;;;18.48;9.07;;;6.00;69.70;4.70;102721.00;;;;4986907;28;20037;-68
2021/04/24 02:20:52;;;;;;;19.92;9.65;;;6.90;70.80;4.70;102725.00;;;;5002468;28;20053;-68
2021/04/24 02:23:19;;;;;;;18.40;9.13;;;5.90;70.30;4.70;102723.00;;;;5019540;28;20048;-68
2021/04/24 02:25:47;;;;;;;17.73;9.02;;;5.90;70.50;4.60;102726.00;;;;5003345;28;20102;-68
2021/04/24 02:28:14;;;;;;;23.90;10.90;;;5.90;69.70;4.60;102725.00;;;;4991955;28;20030;-68
2021/04/24 02:30:41;;;;;;;;;;;5.90;70.80;4.50;102726.00;;;;5001537;28;20136;-68
2021/04/24 02:33:07;;;;;;;23.98;10.95;;;5.80;70.50;4.60;102720.00;;;;5005967;28;19926;-68
2021/04/24 02:35:47;;;;;;;20.58;10.43;;;5.80;70.40;4.50;102721.00;;;;5002707;28;20090;-68
2021/04/24 02:38:18;;;;;;;25.90;11.80;;;5.90;70.90;4.60;102722.00;;;;4998676;28;20598;-68
2021/04/24 02:40:45;;;;;;;25.23;12.48;;;5.80;70.70;4.60;102714.00;;;;5003552;28;20099;-68
2021/04/24 02:43:11;;;;;;;21.92;11.98;;;7.90;72.40;4.60;102714.00;;;;4999612;28;20060;-67
2021/04/24 02:45:37;;;;;;;23.58;11.27;;;5.80;71.20;4.60;102715.00;;;;5005730;28;20065;-67
2021/04/24 02:48:04;;;;;;;24.73;12.00;;;5.80;71.80;4.50;102719.00;;;;5001660;28;20065;-67
2021/04/24 02:50:30;;;;;;;23.50;11.70;;;5.80;71.20;4.50;102720.00;;;;5007756;28;20042;-67
2021/04/24 02:52:56;;;;;;;24.88;11.88;;;5.70;71.80;4.50;102720.00;;;;5001749;28;20059;-68
2021/04/24 02:55:22;;;;;;;18.55;10.80;;;5.70;71.10;4.50;102719.00;;;;5000449;28;20081;-68
2021/04/24 02:57:48;;;;;;;23.60;11.30;;;5.70;71.10;4.50;102721.00;;;;5005275;28;20119;-68
2021/04/24 03:00:18;;;;;;;22.15;11.27;;;5.70;70.80;4.50;102716.00;;;;5002053;28;20103;-68
2021/04/24 03:02:44;;;;;;;20.17;10.18;;;5.20;71.40;4.50;102716.00;;;;4994246;28;20426;-68
2021/04/24 03:05:14;;;;;;;19.23;10.05;;;5.70;71.60;4.40;102710.00;;;;5004028;28;20061;-68
2021/04/24 03:07:41;;;;;;;22.90;10.20;;;5.70;71.50;4.50;102726.00;;;;5001878;28;20061;-68
2021/04/24 03:10:09;;;;;;;24.52;9.40;;;5.70;73.10;4.50;102721.00;;;;5000147;28;20493;-67
2021/04/24 03:12:35;;;;;;;23.50;10.35;;;5.60;71.60;4.50;102724.00;;;;5004159;28;20038;-67
2021/04/24 03:15:05;;;;;;;21.15;10.07;;;5.70;71.90;4.40;102718.00;;;;4997097;28;20046;-67
2021/04/24 03:17:30;;;;;;;21.70;10.27;;;5.70;72.00;4.40;102719.00;;;;5007760;28;20524;-67
2021/04/24 03:19:56;;;;;;;23.02;10.35;;;5.70;72.20;4.40;102734.00;;;;4998934;28;20053;-68
2021/04/24 03:22:22;;;;;;;23.80;10.45;;;5.80;72.20;4.40;102726.00;;;;5000837;28;20041;-68
2021/04/24 03:24:48;;;;;;;20.55;9.93;;;5.70;71.90;4.40;102730.00;;;;4999771;28;20524;-68
2021/04/24 03:27:14;;;;;;;22.83;11.05;;;5.60;72.00;4.40;102729.00;;;;5002136;28;20076;-68
2021/04/24 03:29:40;;;;;;;24.50;11.18;;;6.20;72.70;4.40;102724.00;;;;5003846;28;20068;-68
2021/04/24 03:32:06;;;;;;;22.02;10.77;;;5.60;72.30;4.40;102721.00;;;;5006077;28;20048;-68
2021/04/24 03:34:34;;;;;;;24.95;10.43;;;5.60;72.90;4.30;102716.00;;;;5004810;28;20646;-68
2021/04/24 03:37:00;;;;;;;20.08;10.48;;;5.60;72.90;4.30;102718.00;;;;4997636;28;20402;-68
2021/04/24 03:39:26;;;;;;;19.65;11.13;;;5.30;71.80;4.30;102716.00;;;;5008785;28;20045;-68
2021/04/24 03:41:52;;;;;;;21.98;10.30;;;5.50;72.70;4.30;102710.00;;;;4997554;28;20055;-68
2021/04/24 03:44:18;;;;;;;22.70;10.73;;;6.90;74.10;4.30;102718.00;;;;5004234;28;20045;-68
2021/04/24 03:46:45;;;;;;;24.55;11.40;;;5.50;72.10;4.30;102718.00;;;;5007106;28;20157;-68
2021/04/24 03:49:11;;;;;;;23.55;10.65;;;5.50;73.30;4.30;102719.00;;;;5007142;28;20053;-69
2021/04/24 03:51:37;;;;;;;27.00;11.07;;;5.50;73.00;4.30;102719.00;;;;5007489;28;20038;-67
2021/04/24 03:54:04;;;;;;;25.83;11.53;;;5.50;73.60;4.30;102714.00;;;;5009682;28;20041;-68
2021/04/24 03:56:30;;;;;;;21.35;10.38;;;5.50;73.30;4.30;102720.00;;;;5008641;28;20472;-68
2021/04/24 03:58:56;;;;;;;19.25;10.35;;;5.40;72.60;4.20;102721.00;;;;5004975;28;20041;-68
2021/04/24 04:01:22;;;;;;;21.42;10.63;;;5.50;72.80;4.30;102717.00;;;;5008212;28;20078;-68
2021/04/24 04:03:48;;;;;;;23.92;10.52;;;5.50;74.00;4.30;102718.00;;;;5008350;28;20500;-68
2021/04/24 04:06:14;;;;;;;21.77;10.45;;;5.40;72.90;4.20;102714.00;;;;4997799;28;20099;-68
2021/04/24 04:08:40;;;;;;;21.33;10.25;;;5.50;74.10;4.20;102700.00;;;;5008173;28;20042;-68
2021/04/24 04:11:06;;;;;;;23.08;10.13;;;5.50;74.10;4.20;102711.00;;;;5010061;28;20420;-68
2021/04/24 04:13:32;;;;;;;22.08;10.50;;;5.50;74.40;4.20;102715.00;;;;5008090;28;20091;-68
2021/04/24 04:15:57;;;;;;;22.85;10.55;;;4.80;73.70;4.20;102715.00;;;;5006278;28;20049;-68
2021/04/24 04:18:23;;;;;;;22.02;10.55;;;5.40;74.70;4.20;102714.00;;;;5009804;28;20037;-67
2021/04/24 04:20:54;;;;;;;20.52;9.77;;;5.40;74.60;4.20;102722.00;;;;5005554;28;20152;-67
2021/04/24 04:23:21;;;;;;;23.40;10.40;;;5.40;74.90;4.20;102717.00;;;;5005562;28;20067;-67
2021/04/24 04:25:49;;;;;;;22.55;10.90;;;5.40;73.00;4.20;102718.00;;;;5003141;28;20095;-67
2021/04/24 04:28:15;;;;;;;21.00;9.85;;;5.40;74.00;4.20;102719.00;;;;5017031;28;20125;-68
2021/04/24 04:30:42;;;;;;;24.35;10.38;;;5.40;73.50;4.20;102717.00;;;;5005524;28;20086;-67
2021/04/24 04:33:08;;;;;;;20.88;9.70;;;6.50;75.20;4.20;102721.00;;;;5003420;28;20045;-67
2021/04/24 04:35:37;;;;;;;21.58;10.02;;;5.40;74.30;4.20;102728.00;;;;4986743;28;20041;-68
2021/04/24 04:38:04;;;;;;;23.10;10.80;;;5.40;74.60;4.20;102728.00;;;;4996416;28;20045;-68
2021/04/24 04:40:31;;;;;;;21.33;10.50;;;5.40;73.90;4.20;102733.00;;;;5006789;28;20357;-68
2021/04/24 04:42:57;;;;;;;32.92;11.82;;;5.40;74.70;4.20;102729.00;;;;5002572;28;20045;-68
2021/04/24 04:45:24;;;;;;;24.85;10.23;;;5.40;74.80;4.20;102736.00;;;;5012593;28;20103;-68
2021/04/24 04:47:50;;;;;;;21.57;10.77;;;5.40;75.50;4.20;102723.00;;;;5009259;28;20404;-68
2021/04/24 04:50:21;;;;;;;22.75;11.10;;;5.40;75.10;4.20;102737.00;;;;5021849;28;20051;-68
2021/04/24 04:52:48;;;;;;;21.65;9.93;;;5.40;75.00;4.20;102733.00;;;;5002070;28;20054;-67
2021/04/24 04:55:15;;;;;;;25.15;11.30;;;5.40;74.30;4.30;102736.00;;;;5007452;28;20522;-67
2021/04/24 04:57:42;;;;;;;23.33;10.95;;;5.50;75.10;4.20;102737.00;;;;5007745;28;20100;-67
2021/04/24 05:00:12;;;;;;;24.85;11.35;;;5.50;75.50;4.30;102738.00;;;;4999337;28;20042;-67
2021/04/24 05:02:38;;;;;;;26.40;13.02;;;5.50;75.50;4.30;102737.00;;;;5002415;28;20488;-67
2021/04/24 05:05:06;;;;;;;28.15;13.77;;;5.20;75.30;4.30;102736.00;;;;5006654;28;20048;-67
2021/04/24 05:07:32;;;;;;;;;;;5.50;75.50;4.30;102733.00;;;;5011616;28;20110;-68
2021/04/24 05:09:58;;;;;;;27.90;14.32;;;5.50;76.80;4.30;102748.00;;;;5004978;28;20635;-68
2021/04/24 05:12:24;;;;;;;27.27;13.85;;;5.50;75.20;4.30;102739.00;;;;5005826;28;20033;-67
2021/04/24 05:14:50;;;;;;;27.10;13.02;;;5.60;75.70;4.40;102749.00;;;;5009421;28;20463;-67
2021/04/24 05:17:16;;;;;;;28.17;14.13;;;5.60;75.30;4.40;102744.00;;;;5006470;28;20033;-67
2021/04/24 05:19:42;;;;;;;33.35;14.93;;;5.60;75.70;4.40;102737.00;;;;5000730;28;20120;-67
2021/04/24 05:22:08;;;;;;;33.72;17.23;;;5.60;75.90;4.50;102750.00;;;;4999923;28;20053;-67
2021/04/24 05:24:34;;;;;;;30.77;17.77;;;5.70;75.70;4.50;102741.00;;;;5001495;28;20711;-67
2021/04/24 05:27:00;;;;;;;39.20;20.92;;;5.70;74.90;4.50;102736.00;;;;5001125;28;20054;-67
2021/04/24 05:29:26;;;;;;;32.65;19.42;;;5.70;75.40;4.60;102740.00;;;;4994218;28;20354;-67
2021/04/24 05:31:52;;;;;;;36.15;19.63;;;5.50;75.50;4.60;102752.00;;;;4995859;28;20144;-67
2021/04/24 05:34:18;;;;;;;32.42;18.10;;;5.80;75.10;4.70;102749.00;;;;5000048;28;20061;-67
2021/04/24 05:36:44;;;;;;;35.15;18.10;;;5.80;75.80;4.70;102743.00;;;;5000828;28;20076;-67
2021/04/24 05:39:10;;;;;;;31.65;17.27;;;5.80;75.90;4.80;102746.00;;;;5005451;28;20440;-66
2021/04/24 05:41:37;;;;;;;29.70;15.88;;;5.90;75.80;4.80;102749.00;;;;5002421;28;20053;-67
2021/04/24 05:44:04;;;;;;;30.57;16.27;;;6.00;75.60;4.90;102746.00;;;;5010053;28;20215;-67
2021/04/24 05:46:30;;;;;;;33.57;16.97;;;6.00;75.90;4.90;102748.00;;;;4998471;28;20292;-68
2021/04/24 05:48:56;;;;;;;31.05;15.52;;;6.00;75.40;5.00;102760.00;;;;5002658;28;20459;-67
2021/04/24 05:51:23;;;;;;;28.50;16.40;;;6.50;75.60;5.00;102752.00;;;;4993315;28;20073;-67
2021/04/24 05:53:52;;;;;;;25.33;13.85;;;6.30;75.70;5.10;102757.00;;;;5002687;28;20546;-66
2021/04/24 05:56:20;;;;;;;27.65;13.23;;;6.20;77.30;5.10;102755.00;;;;5003464;28;20120;-67
2021/04/24 05:58:48;;;;;;;31.40;13.48;;;6.20;75.90;5.20;102759.00;;;;5017351;28;21704;-67
2021/04/24 06:01:14;;;;;;;29.25;13.93;;;6.30;74.80;5.30;102761.00;;;;4998382;28;20073;-67
2021/04/24 06:03:40;;;;;;;22.20;12.75;;;6.50;76.00;5.30;102759.00;;;;5006583;28;20146;-67
2021/04/24 06:06:06;;;;;;;22.88;11.68;;;6.50;75.40;5.50;102768.00;;;;5005522;28;20041;-67
2021/04/24 06:08:32;;;;;;;27.50;11.85;;;6.40;75.60;5.60;102765.00;;;;5007254;28;20037;-67
2021/04/24 06:10:59;;;;;;;27.02;13.40;;;7.10;75.50;5.70;102769.00;;;;5007512;28;20046;-67
2021/04/24 06:13:26;;;;;;;23.20;12.10;;;6.90;74.70;5.90;102770.00;;;;5003728;28;20560;-67
2021/04/24 06:15:52;;;;;;;20.38;11.60;;;6.90;75.00;6.00;102773.00;;;;4997617;28;20042;-67
2021/04/24 06:18:18;;;;;;;20.92;10.32;;;6.90;75.50;6.00;102771.00;;;;5002973;28;20044;-67
2021/04/24 06:20:45;;;;;;;20.65;10.07;;;7.00;75.30;6.00;102780.00;;;;5001743;28;20412;-67
2021/04/24 06:23:12;;;;;;;23.20;9.52;;;7.00;74.80;6.10;102774.00;;;;5002200;28;20038;-67
2021/04/24 06:25:39;;;;;;;26.67;9.68;;;7.10;75.30;6.10;102778.00;;;;5003095;28;20048;-67
2021/04/24 06:28:05;;;;;;;17.55;9.07;;;7.10;73.80;6.20;102780.00;;;;5002639;28;20077;-67
2021/04/24 06:30:31;;;;;;;16.23;8.48;;;7.30;75.10;6.20;102780.00;;;;5000101;28;20221;-67
2021/04/24 06:32:57;;;;;;;20.17;8.93;;;7.20;75.10;6.30;102769.00;;;;5003593;28;20077;-67
2021/04/24 06:35:25;;;;;;;18.70;8.75;;;7.30;75.00;6.40;102776.00;;;;5018371;28;20088;-67
2021/04/24 06:37:52;;;;;;;;;;;7.40;74.80;6.50;102772.00;;;;5002111;28;20112;-67
2021/04/24 06:40:19;;;;;;;15.10;8.70;;;7.40;75.50;6.60;102785.00;;;;4999693;28;20046;-67
2021/04/24 06:42:46;;;;;;;17.17;9.13;;;7.50;74.30;6.70;102788.00;;;;4996635;28;20046;-67
2021/04/24 06:45:13;;;;;;;19.40;8.23;;;7.50;74.20;6.80;102779.00;;;;5000499;28;20053;-66
2021/04/24 06:47:40;;;;;;;14.93;7.65;;;7.70;74.10;6.80;102783.00;;;;4999434;28;20050;-67
2021/04/24 06:50:08;;;;;;;14.90;8.48;;;7.80;73.60;6.90;102794.00;;;;5002073;28;20037;-68
2021/04/24 06:52:34;;;;;;;16.60;7.95;;;7.80;74.00;7.00;102780.00;;;;5007323;28;20049;-67
2021/04/24 06:55:00;;;;;;;15.45;8.02;;;7.90;73.70;7.00;102776.00;;;;4981521;28;20572;-67
2021/04/24 06:57:27;;;;;;;14.30;7.95;;;8.00;73.60;7.20;102779.00;;;;5001000;28;20049;-67
2021/04/24 06:59:53;;;;;;;16.90;8.43;;;8.10;72.40;7.20;102779.00;;;;4995485;28;20606;-67
2021/04/24 07:02:19;;;;;;;15.77;7.97;;;8.10;73.20;7.30;102776.00;;;;4996904;28;20108;-67
2021/04/24 07:04:45;;;;;;;17.33;7.97;;;8.20;73.30;7.40;102780.00;;;;4977129;28;20988;-68
2021/04/24 07:07:11;;;;;;;15.93;8.63;;;8.30;72.90;7.60;102789.00;;;;5004055;28;20069;-67
2021/04/24 07:09:37;;;;;;;15.48;8.07;;;8.40;72.70;7.50;102786.00;;;;4990716;28;20124;-68
2021/04/24 07:12:05;;;;;;;14.65;7.85;;;8.50;72.60;7.60;102775.00;;;;5000765;28;20830;-67
2021/04/24 07:14:31;;;;;;;;;;;8.50;72.40;7.60;102785.00;;;;5006072;28;20038;-68
2021/04/24 07:16:56;;;;;;;15.07;7.28;;;8.50;72.70;7.70;102775.00;;;;5004915;28;19922;-68
2021/04/24 07:19:22;;;;;;;12.10;7.53;;;8.50;71.40;7.80;102791.00;;;;5004813;28;20690;-68
2021/04/24 07:21:48;;;;;;;18.05;7.97;;;8.70;72.20;7.80;102779.00;;;;4997195;28;20038;-68
2021/04/24 07:24:14;;;;;;;13.95;7.43;;;8.70;72.10;7.90;102794.00;;;;4999262;28;20176;-67
2021/04/24 07:26:41;;;;;;;15.48;7.40;;;8.80;71.20;8.00;102781.00;;;;4999653;28;20068;-67
2021/04/24 07:29:07;;;;;;;15.57;8.32;;;8.80;72.00;8.10;102783.00;;;;5011898;28;20206;-67
2021/04/24 07:31:34;;;;;;;15.95;7.72;;;8.90;71.80;8.20;102787.00;;;;5005376;28;20126;-67
2021/04/24 07:34:00;;;;;;;16.55;7.60;;;9.00;71.60;8.30;102773.00;;;;5001888;28;20058;-67
2021/04/24 07:36:28;;;;;;;22.23;7.73;;;9.10;72.60;8.40;102790.00;;;;5000574;28;20050;-67
2021/04/24 07:38:55;;;;;;;12.80;7.60;;;9.20;72.30;8.50;102770.00;;;;5003903;28;20300;-66
2021/04/24 07:41:23;;;;;;;14.63;7.15;;;9.40;71.10;8.50;102776.00;;;;5003836;28;20041;-67
2021/04/24 07:43:49;;;;;;;;;;;9.30;69.60;8.40;102767.00;;;;5006496;28;20038;-67
2021/04/24 07:46:16;;;;;;;11.98;6.60;;;9.30;70.10;8.60;102774.00;;;;5002146;28;19921;-68
2021/04/24 07:48:42;;;;;;;14.85;7.85;;;9.40;71.00;8.80;102773.00;;;;4992939;28;20037;-68
2021/04/24 07:51:08;;;;;;;17.23;8.05;;;9.70;70.90;9.10;102777.00;;;;5016396;28;20525;-67
2021/04/24 07:53:33;;;;;;;13.55;7.10;;;9.70;70.60;9.30;102767.00;;;;5000904;28;20038;-68
2021/04/24 07:55:59;;;;;;;11.48;6.93;;;9.90;70.10;9.50;102774.00;;;;5001353;28;20124;-68
2021/04/24 07:58:25;;;;;;;10.55;6.30;;;10.10;69.00;9.50;102781.00;;;;5004393;28;20050;-68
2021/04/24 08:00:51;;;;;;;12.35;6.13;;;10.20;66.40;9.40;102780.00;;;;5000604;28;20049;-68
2021/04/24 08:03:17;;;;;;;11.95;6.00;;;10.20;67.10;9.30;102773.00;;;;5003623;28;20045;-68
2021/04/24 08:05:43;;;;;;;12.05;6.50;;;10.10;67.30;9.30;102780.00;;;;5000927;28;21135;-67
2021/04/24 08:08:09;;;;;;;11.35;6.25;;;10.10;67.10;9.20;102777.00;;;;5000935;28;20785;-67
2021/04/24 08:10:35;;;;;;;11.10;6.00;;;10.00;67.60;9.30;102781.00;;;;5001793;28;20050;-67
2021/04/24 08:13:04;;;;;;;11.55;6.90;;;10.10;67.50;9.10;102769.00;;;;5003188;28;20070;-67
2021/04/24 08:15:31;;;;;;;12.15;6.82;;;10.10;67.10;9.10;102776.00;;;;5003411;28;20513;-66
2021/04/24 08:17:57;;;;;;;12.63;6.78;;;9.90;65.40;8.90;102771.00;;;;5003621;28;20514;-67
2021/04/24 08:20:23;;;;;;;11.23;6.60;;;9.90;66.30;8.90;102774.00;;;;4994520;28;20042;-67
2021/04/24 08:22:49;;;;;;;14.82;6.55;;;9.90;66.10;9.00;102757.00;;;;4998788;28;20419;-67
2021/04/24 08:25:18;;;;;;;12.70;6.40;;;9.30;67.30;9.20;102767.00;;;;5003482;28;20042;-68
2021/04/24 08:27:45;;;;;;;12.95;6.55;;;10.00;66.30;9.30;102779.00;;;;5003864;28;20140;-67
2021/04/24 08:30:14;;;;;;;18.48;7.05;;;10.00;67.00;9.40;102776.00;;;;5022793;28;20057;-68
2021/04/24 08:32:42;;;;;;;13.30;6.70;;;10.20;65.80;9.50;102774.00;;;;5008699;28;20382;-67
2021/04/24 08:35:10;;;;;;;13.38;6.78;;;10.30;66.70;9.60;102781.00;;;;5011358;28;20049;-68
2021/04/24 08:37:36;;;;;;;11.35;6.35;;;10.40;65.80;9.70;102771.00;;;;5005521;28;20049;-68
2021/04/24 08:40:06;;;;;;;11.95;6.55;;;10.40;65.60;9.90;102777.00;;;;5009046;28;20042;-68
2021/04/24 08:42:33;;;;;;;13.75;6.57;;;10.60;65.80;9.90;102775.00;;;;5008622;28;20049;-67
2021/04/24 08:44:59;;;;;;;10.82;5.85;;;10.70;65.30;10.10;102773.00;;;;5003324;28;20050;-68
2021/04/24 08:47:28;;;;;;;12.40;6.03;;;10.80;65.00;10.30;102767.00;;;;5003395;28;20080;-66
2021/04/24 08:49:54;;;;;;;7.50;4.95;;;10.90;63.50;10.30;102770.00;;;;5007380;28;20053;-66
2021/04/24 08:52:23;;;;;;;8.30;5.22;;;11.00;63.20;10.40;102777.00;;;;5008461;28;20512;-66
2021/04/24 08:54:50;;;;;;;14.32;5.63;;;11.40;64.00;10.50;102773.00;;;;5005116;28;20046;-67
2021/04/24 08:57:17;;;;;;;12.27;5.97;;;11.30;61.90;10.70;102770.00;;;;5006308;28;20034;-67
2021/04/24 08:59:43;;;;;;;11.50;5.63;;;11.50;60.80;10.90;102772.00;;;;5008897;28;20595;-69
2021/04/24 09:02:09;;;;;;;8.37;4.93;;;11.60;63.00;11.00;102769.00;;;;5001127;28;20624;-66
2021/04/24 09:04:36;;;;;;;8.13;5.60;;;11.70;62.20;11.10;102782.00;;;;5020121;28;20045;-67
2021/04/24 09:07:04;;;;;;;15.60;5.18;;;11.80;62.20;11.00;102780.00;;;;5020227;28;20057;-67
2021/04/24 09:09:30;;;;;;;13.15;5.53;;;11.80;60.10;10.80;102779.00;;;;5006128;28;20115;-67
2021/04/24 09:12:00;;;;;;;7.97;5.35;;;11.60;61.50;10.90;102769.00;;;;5002840;28;20531;-67
2021/04/24 09:14:28;;;;;;;8.13;4.95;;;11.70;61.70;11.00;102773.00;;;;5004047;28;20049;-68
2021/04/24 09:16:55;;;;;;;8.57;4.82;;;11.70;60.10;11.10;102777.00;;;;5006048;28;20041;-68
2021/04/24 09:19:34;;;;;;;7.88;3.90;;;12.20;61.60;11.20;102776.00;;;;5008743;28;20033;-67
2021/04/24 09:22:21;;;;;;;9.32;4.25;;;11.90;60.80;11.30;102778.00;;;;5006736;28;20511;-68
2021/04/24 09:24:50;;;;;;;12.45;4.95;;;12.10;55.80;11.30;102775.00;;;;5002695;28;20075;-68
2021/04/24 09:27:17;;;;;;;12.88;3.65;;;12.10;57.30;11.50;102769.00;;;;5006009;28;20073;-68
2021/04/24 09:29:43;;;;;;;7.22;4.00;;;;;11.30;102772.00;;;;5004973;28;20108;-68
2021/04/24 09:32:20;;;;;;;7.40;3.37;;;12.10;57.70;11.20;102762.00;;;;5022022;28;20060;-66
2021/04/24 09:34:49;;;;;;;10.27;3.83;;;12.00;57.00;11.20;102764.00;;;;5008829;28;20128;-67
2021/04/24 09:37:18;;;;;;;5.65;3.20;;;12.00;57.90;11.40;102772.00;;;;5021455;28;20037;-66
2021/04/24 09:39:50;;;;;;;4.78;3.30;;;12.60;57.90;11.40;102770.00;;;;5003058;28;20065;-67
2021/04/24 09:42:40;;;;;;;6.82;3.35;;;12.20;58.40;11.30;102758.00;;;;5008891;28;20124;-67
2021/04/24 09:45:40;;;;;;;8.05;3.55;;;12.20;56.60;11.50;102756.00;;;;5009274;28;20033;-67
2021/04/24 09:48:24;;;;;;;7.43;3.47;;;12.30;55.00;11.70;102751.00;;;;5007500;28;20557;-66
2021/04/24 09:50:50;;;;;;;9.50;3.53;;;12.50;55.20;11.70;102744.00;;;;5010251;28;20038;-67
2021/04/24 09:53:27;;;;;;;7.47;3.50;;;12.40;55.60;11.90;102753.00;;;;4993373;28;20066;-67
2021/04/24 09:55:54;;;;;;;6.93;3.22;;;12.90;56.30;12.10;102745.00;;;;5003997;28;20049;-67
2021/04/24 09:58:41;;;;;;;8.35;3.00;;;12.70;56.10;12.00;102739.00;;;;5003015;28;20040;-67
2021/04/24 10:01:31;;;;;;;6.75;3.00;;;12.70;53.40;12.00;102732.00;;;;5007409;28;20137;-67
2021/04/24 10:04:12;;;;;;;5.28;2.60;;;12.70;52.90;12.20;102742.00;;;;5123309;27;20499;-73
2021/04/24 10:06:41;;;;;;;6.97;2.55;;;12.80;54.70;12.10;102750.00;;;;5061209;28;20055;-68
2021/04/24 10:09:15;;;;;;;5.88;3.03;;;12.80;50.50;11.90;102742.00;;;;5071265;28;20131;-68
2021/04/24 10:12:00;;;;;;;5.18;3.22;;;12.80;51.70;12.00;102734.00;;;;5071270;28;20078;-68
2021/04/24 10:14:38;;;;;;;11.60;4.15;;;12.80;54.10;12.00;102743.00;;;;5074233;28;20067;-67
2021/04/24 10:17:16;;;;;;;6.80;3.15;;;12.80;53.50;12.00;102734.00;;;;5072470;28;20124;-68
2021/04/24 10:19:43;;;;;;;8.32;2.92;;;12.80;54.00;12.30;102732.00;;;;5069255;28;20068;-67
2021/04/24 10:22:12;;;;;;;;;;;12.90;54.40;12.30;102722.00;;;;5065751;28;20037;-66
2021/04/24 10:24:38;;;;;;;;;;;13.10;53.60;12.40;102735.00;;;;5045979;28;20420;-69
2021/04/24 10:27:06;;;;;;;4.55;3.08;;;13.20;52.70;12.50;102733.00;;;;5049150;28;20650;-67
2021/04/24 10:29:32;;;;;;;7.18;3.22;;;13.20;54.10;12.60;102719.00;;;;5047233;28;20171;-66
2021/04/24 10:31:59;;;;;;;6.20;2.80;;;13.30;54.00;12.60;102723.00;;;;5040429;28;20061;-66
2021/04/24 10:34:25;;;;;;;5.93;3.22;;;13.40;52.50;12.50;102721.00;;;;5051100;28;20229;-67
2021/04/24 10:36:52;;;;;;;4.70;3.10;;;13.30;50.60;12.50;102721.00;;;;5044770;28;20376;-67
2021/04/24 10:39:31;;;;;;;4.47;2.80;;;13.30;51.60;12.50;102718.00;;;;5047637;28;20045;-67
2021/04/24 10:42:00;;;;;;;5.82;3.20;;;13.30;52.60;12.30;102717.00;;;;5048714;28;20098;-67
2021/04/24 10:44:53;;;;;;;4.45;2.90;;;13.20;52.20;12.20;102736.00;;;;5048944;28;20052;-67
2021/04/24 10:47:54;;;;;;;6.82;3.45;;;12.90;49.70;12.00;102718.00;;;;5069153;28;20040;-67
2021/04/24 10:50:24;;;;;;;26.70;4.93;;;12.80;49.40;12.10;102717.00;;;;5073506;28;20040;-67
2021/04/24 10:52:51;;;;;;;50.20;6.55;;;12.90;53.30;12.30;102723.00;;;;5070472;28;20650;-66
2021/04/24 10:55:17;;;;;;;;;;;13.00;52.40;12.50;102715.00;;;;5048533;28;20503;-67
2021/04/24 10:58:00;;;;;;;8.07;3.67;;;13.20;51.10;12.70;102712.00;;;;5065631;28;19924;-67